Terminal Aerodrome Forecast
Issued by NWS Wilmington, NC

Home | Current Version | Previous Version | Text Only | Print | Product List | Glossary On
Versions: 1 2 3 4 5 6 7 8 9 10 11 12 13
000
FTUS42 KILM 260157 AAA
TAFLBT
TAF AMD
KLBT 260157Z 2602/2624 16007KT P6SM SKC
      TEMPO 2602/2604 4SM BR
     FM260900 VRB03KT 4SM BR SCT007 BKN015
     FM261300 18006KT P6SM SCT025 BKN050
     FM261900 15008G15KT P6SM SCT050 BKN100=

USA.gov is the U.S. government's official web portal to all federal, state and local government web resources and services.